sensor_id;sensor_type;location;lat;lon;timestamp;temperature;humidity
19224;DHT22;9746;47.180;9.776;2023-04-29T06:37:20;13.40;99.90
19224;DHT22;9746;47.180;9.776;2023-04-29T06:39:47;13.60;99.90
19224;DHT22;9746;47.180;9.776;2023-04-29T06:42:15;13.70;99.90
19224;DHT22;9746;47.180;9.776;2023-04-29T06:44:44;13.80;99.90
19224;DHT22;9746;47.180;9.776;2023-04-29T06:47:15;13.90;99.90
19224;DHT22;9746;47.180;9.776;2023-04-29T06:49:42;14.20;99.90
19224;DHT22;9746;47.180;9.776;2023-04-29T06:52:11;14.40;99.90
19224;DHT22;9746;47.180;9.776;2023-04-29T06:54:40;14.60;99.90
19224;DHT22;9746;47.180;9.776;2023-04-29T06:57:14;14.60;99.90
19224;DHT22;9746;47.180;9.776;2023-04-29T06:59:42;14.70;99.90
19224;DHT22;9746;47.180;9.776;2023-04-29T07:02:10;14.70;99.90
19224;DHT22;9746;47.180;9.776;2023-04-29T07:04:38;14.80;99.90
19224;DHT22;9746;47.180;9.776;2023-04-29T07:07:18;15.00;99.90
19224;DHT22;9746;47.180;9.776;2023-04-29T07:09:48;15.20;99.90
19224;DHT22;9746;47.180;9.776;2023-04-29T07:12:25;15.30;99.90
19224;DHT22;9746;47.180;9.776;2023-04-29T07:14:53;15.40;99.90
19224;DHT22;9746;47.180;9.776;2023-04-29T07:17:29;15.60;99.90
19224;DHT22;9746;47.180;9.776;2023-04-29T07:19:56;15.80;99.90
19224;DHT22;9746;47.180;9.776;2023-04-29T07:22:27;15.90;99.90
19224;DHT22;9746;47.180;9.776;2023-04-29T07:24:56;16.00;99.90
19224;DHT22;9746;47.180;9.776;2023-04-29T07:27:24;16.00;99.90
19224;DHT22;9746;47.180;9.776;2023-04-29T07:29:51;16.10;99.90
19224;DHT22;9746;47.180;9.776;2023-04-29T07:32:20;16.10;99.90
19224;DHT22;9746;47.180;9.776;2023-04-29T07:34:47;16.20;99.90
19224;DHT22;9746;47.180;9.776;2023-04-29T07:37:15;16.30;99.90
19224;DHT22;9746;47.180;9.776;2023-04-29T07:39:43;16.50;99.90
19224;DHT22;9746;47.180;9.776;2023-04-29T07:42:14;16.60;99.90
19224;DHT22;9746;47.180;9.776;2023-04-29T07:44:41;16.70;99.90
19224;DHT22;9746;47.180;9.776;2023-04-29T07:47:10;16.70;99.90
19224;DHT22;9746;47.180;9.776;2023-04-29T07:49:37;16.70;99.90
19224;DHT22;9746;47.180;9.776;2023-04-29T07:52:05;16.80;99.90
19224;DHT22;9746;47.180;9.776;2023-04-29T07:54:35;16.90;99.90
19224;DHT22;9746;47.180;9.776;2023-04-29T07:57:03;17.10;99.90
19224;DHT22;9746;47.180;9.776;2023-04-29T07:59:32;17.40;99.90
19224;DHT22;9746;47.180;9.776;2023-04-29T08:02:00;17.60;99.90
19224;DHT22;9746;47.180;9.776;2023-04-29T08:04:28;17.60;99.90
19224;DHT22;9746;47.180;9.776;2023-04-29T08:06:55;17.80;99.90
19224;DHT22;9746;47.180;9.776;2023-04-29T08:09:23;17.90;99.90
19224;DHT22;9746;47.180;9.776;2023-04-29T08:11:52;18.00;99.90
19224;DHT22;9746;47.180;9.776;2023-04-29T08:14:19;18.10;99.90
19224;DHT22;9746;47.180;9.776;2023-04-29T08:16:49;18.10;99.90
19224;DHT22;9746;47.180;9.776;2023-04-29T08:19:16;18.30;99.90
19224;DHT22;9746;47.180;9.776;2023-04-29T08:21:43;18.40;99.90
19224;DHT22;9746;47.180;9.776;2023-04-29T08:24:11;18.50;99.90
19224;DHT22;9746;47.180;9.776;2023-04-29T08:26:45;18.50;99.90
19224;DHT22;9746;47.180;9.776;2023-04-29T08:29:13;18.60;99.90
19224;DHT22;9746;47.180;9.776;2023-04-29T08:31:49;18.60;99.90
19224;DHT22;9746;47.180;9.776;2023-04-29T08:34:16;18.70;99.90
19224;DHT22;9746;47.180;9.776;2023-04-29T08:36:46;18.70;99.90
19224;DHT22;9746;47.180;9.776;2023-04-29T08:39:14;18.80;99.90
19224;DHT22;9746;47.180;9.776;2023-04-29T08:41:41;18.90;99.90
19224;DHT22;9746;47.180;9.776;2023-04-29T08:44:14;19.10;99.90
19224;DHT22;9746;47.180;9.776;2023-04-29T08:46:42;19.10;99.90
19224;DHT22;9746;47.180;9.776;2023-04-29T08:49:12;19.10;99.90
19224;DHT22;9746;47.180;9.776;2023-04-29T08:51:40;19.20;99.90
19224;DHT22;9746;47.180;9.776;2023-04-29T08:54:07;19.20;99.90
19224;DHT22;9746;47.180;9.776;2023-04-29T08:56:35;19.30;99.90
19224;DHT22;9746;47.180;9.776;2023-04-29T08:59:04;19.40;99.90
19224;DHT22;9746;47.180;9.776;2023-04-29T09:01:36;19.60;99.90
19224;DHT22;9746;47.180;9.776;2023-04-29T09:04:11;19.70;99.90
19224;DHT22;9746;47.180;9.776;2023-04-29T09:06:43;19.80;99.90
19224;DHT22;9746;47.180;9.776;2023-04-29T09:09:11;20.00;99.90
19224;DHT22;9746;47.180;9.776;2023-04-29T09:11:40;20.10;99.90
19224;DHT22;9746;47.180;9.776;2023-04-29T09:14:07;20.10;99.90
19224;DHT22;9746;47.180;9.776;2023-04-29T09:16:36;20.20;99.90
19224;DHT22;9746;47.180;9.776;2023-04-29T09:19:03;20.30;99.90
19224;DHT22;9746;47.180;9.776;2023-04-29T09:21:31;20.40;99.90
19224;DHT22;9746;47.180;9.776;2023-04-29T09:24:01;20.60;99.90
19224;DHT22;9746;47.180;9.776;2023-04-29T09:26:40;20.90;99.90
19224;DHT22;9746;47.180;9.776;2023-04-29T09:29:09;21.20;99.90
19224;DHT22;9746;47.180;9.776;2023-04-29T09:31:39;21.40;99.90
19224;DHT22;9746;47.180;9.776;2023-04-29T09:34:07;21.70;99.90
19224;DHT22;9746;47.180;9.776;2023-04-29T09:36:36;22.00;99.90
19224;DHT22;9746;47.180;9.776;2023-04-29T09:39:06;22.10;99.90
19224;DHT22;9746;47.180;9.776;2023-04-29T09:41:41;22.50;99.90
19224;DHT22;9746;47.180;9.776;2023-04-29T09:44:09;22.80;99.90
19224;DHT22;9746;47.180;9.776;2023-04-29T09:46:38;23.10;99.90
19224;DHT22;9746;47.180;9.776;2023-04-29T09:49:24;23.20;99.90
19224;DHT22;9746;47.180;9.776;2023-04-29T09:51:53;23.30;99.90
19224;DHT22;9746;47.180;9.776;2023-04-29T09:54:23;23.30;99.90
19224;DHT22;9746;47.180;9.776;2023-04-29T09:56:54;23.40;99.90
19224;DHT22;9746;47.180;9.776;2023-04-29T09:59:22;23.50;99.90
19224;DHT22;9746;47.180;9.776;2023-04-29T10:01:52;23.70;99.90
19224;DHT22;9746;47.180;9.776;2023-04-29T10:04:21;24.00;99.90
19224;DHT22;9746;47.180;9.776;2023-04-29T10:06:51;24.20;99.90
19224;DHT22;9746;47.180;9.776;2023-04-29T10:09:20;24.10;99.90
19224;DHT22;9746;47.180;9.776;2023-04-29T10:11:50;24.10;99.90
19224;DHT22;9746;47.180;9.776;2023-04-29T10:14:19;24.40;99.90
19224;DHT22;9746;47.180;9.776;2023-04-29T10:16:48;24.40;99.90
19224;DHT22;9746;47.180;9.776;2023-04-29T10:19:22;24.40;99.90
19224;DHT22;9746;47.180;9.776;2023-04-29T10:21:53;24.70;99.90
19224;DHT22;9746;47.180;9.776;2023-04-29T10:24:22;25.00;99.90
19224;DHT22;9746;47.180;9.776;2023-04-29T10:26:53;25.30;99.90
19224;DHT22;9746;47.180;9.776;2023-04-29T10:29:24;25.60;99.90
19224;DHT22;9746;47.180;9.776;2023-04-29T10:31:55;25.80;99.90
19224;DHT22;9746;47.180;9.776;2023-04-29T10:34:24;26.20;99.90
19224;DHT22;9746;47.180;9.776;2023-04-29T10:36:52;26.30;99.90
19224;DHT22;9746;47.180;9.776;2023-04-29T10:39:26;26.00;99.90
19224;DHT22;9746;47.180;9.776;2023-04-29T10:41:57;25.60;99.90
19224;DHT22;9746;47.180;9.776;2023-04-29T10:44:25;25.30;99.90
19224;DHT22;9746;47.180;9.776;2023-04-29T10:47:17;25.30;99.90
19224;DHT22;9746;47.180;9.776;2023-04-29T10:50:01;25.40;99.90
19224;DHT22;9746;47.180;9.776;2023-04-29T10:52:50;25.60;99.90
19224;DHT22;9746;47.180;9.776;2023-04-29T10:55:18;25.60;99.90
19224;DHT22;9746;47.180;9.776;2023-04-29T10:57:46;25.90;99.90
19224;DHT22;9746;47.180;9.776;2023-04-29T11:00:21;26.30;99.90
19224;DHT22;9746;47.180;9.776;2023-04-29T11:02:49;26.60;99.90
19224;DHT22;9746;47.180;9.776;2023-04-29T11:05:29;26.90;99.90
19224;DHT22;9746;47.180;9.776;2023-04-29T11:08:19;27.40;99.90
19224;DHT22;9746;47.180;9.776;2023-04-29T11:10:52;27.90;99.90
19224;DHT22;9746;47.180;9.776;2023-04-29T11:13:26;28.10;99.90
19224;DHT22;9746;47.180;9.776;2023-04-29T11:16:03;28.20;99.90
19224;DHT22;9746;47.180;9.776;2023-04-29T11:18:33;28.40;99.90
19224;DHT22;9746;47.180;9.776;2023-04-29T11:21:14;28.70;99.90
19224;DHT22;9746;47.180;9.776;2023-04-29T11:23:43;28.30;99.90
19224;DHT22;9746;47.180;9.776;2023-04-29T11:26:12;28.20;99.90
19224;DHT22;9746;47.180;9.776;2023-04-29T11:28:41;28.30;99.90
19224;DHT22;9746;47.180;9.776;2023-04-29T11:31:09;28.20;99.90
19224;DHT22;9746;47.180;9.776;2023-04-29T11:33:36;27.50;99.90
19224;DHT22;9746;47.180;9.776;2023-04-29T11:36:04;27.30;99.90
19224;DHT22;9746;47.180;9.776;2023-04-29T11:38:33;27.50;99.90
19224;DHT22;9746;47.180;9.776;2023-04-29T11:41:01;27.80;99.90
19224;DHT22;9746;47.180;9.776;2023-04-29T11:43:30;27.90;99.90
19224;DHT22;9746;47.180;9.776;2023-04-29T11:46:00;28.10;99.90
19224;DHT22;9746;47.180;9.776;2023-04-29T11:48:31;28.40;99.90
19224;DHT22;9746;47.180;9.776;2023-04-29T11:50:58;28.90;99.90
19224;DHT22;9746;47.180;9.776;2023-04-29T11:53:28;28.90;99.90
19224;DHT22;9746;47.180;9.776;2023-04-29T11:55:56;29.00;99.90
19224;DHT22;9746;47.180;9.776;2023-04-29T11:58:24;29.00;99.90
19224;DHT22;9746;47.180;9.776;2023-04-29T12:00:51;29.70;99.90
19224;DHT22;9746;47.180;9.776;2023-04-29T12:03:25;30.40;99.90
19224;DHT22;9746;47.180;9.776;2023-04-29T12:05:53;31.10;99.90
19224;DHT22;9746;47.180;9.776;2023-04-29T12:08:21;31.80;99.90
19224;DHT22;9746;47.180;9.776;2023-04-29T12:10:49;31.70;99.90
19224;DHT22;9746;47.180;9.776;2023-04-29T12:13:19;30.90;99.90
19224;DHT22;9746;47.180;9.776;2023-04-29T12:15:47;30.30;99.90
19224;DHT22;9746;47.180;9.776;2023-04-29T12:18:17;29.60;99.90
19224;DHT22;9746;47.180;9.776;2023-04-29T12:20:47;28.40;99.90
19224;DHT22;9746;47.180;9.776;2023-04-29T12:23:17;27.40;99.90
19224;DHT22;9746;47.180;9.776;2023-04-29T12:25:48;27.00;99.90
19224;DHT22;9746;47.180;9.776;2023-04-29T12:28:18;26.40;99.90
19224;DHT22;9746;47.180;9.776;2023-04-29T12:30:47;26.40;99.90
19224;DHT22;9746;47.180;9.776;2023-04-29T12:33:23;27.30;99.90
19224;DHT22;9746;47.180;9.776;2023-04-29T12:35:53;28.20;99.90
19224;DHT22;9746;47.180;9.776;2023-04-29T12:38:23;28.10;99.90
19224;DHT22;9746;47.180;9.776;2023-04-29T12:40:53;28.20;99.90
19224;DHT22;9746;47.180;9.776;2023-04-29T12:43:25;28.50;99.90
19224;DHT22;9746;47.180;9.776;2023-04-29T12:45:54;29.80;99.90
19224;DHT22;9746;47.180;9.776;2023-04-29T12:48:28;30.90;99.90
19224;DHT22;9746;47.180;9.776;2023-04-29T12:50:59;31.90;99.90
19224;DHT22;9746;47.180;9.776;2023-04-29T12:53:28;32.20;98.60
19224;DHT22;9746;47.180;9.776;2023-04-29T12:55:55;31.90;97.30
19224;DHT22;9746;47.180;9.776;2023-04-29T12:58:23;31.40;98.70
19224;DHT22;9746;47.180;9.776;2023-04-29T13:00:52;31.20;97.20
19224;DHT22;9746;47.180;9.776;2023-04-29T13:03:22;31.00;97.50
19224;DHT22;9746;47.180;9.776;2023-04-29T13:05:50;30.50;97.90
19224;DHT22;9746;47.180;9.776;2023-04-29T13:08:21;31.60;98.10
19224;DHT22;9746;47.180;9.776;2023-04-29T13:10:48;32.40;97.60
19224;DHT22;9746;47.180;9.776;2023-04-29T13:13:16;33.20;95.30
19224;DHT22;9746;47.180;9.776;2023-04-29T13:15:43;33.20;94.00
19224;DHT22;9746;47.180;9.776;2023-04-29T13:18:11;32.50;94.70
19224;DHT22;9746;47.180;9.776;2023-04-29T13:20:38;31.20;94.60
19224;DHT22;9746;47.180;9.776;2023-04-29T13:23:05;29.40;96.50
19224;DHT22;9746;47.180;9.776;2023-04-29T13:25:35;28.90;97.70
19224;DHT22;9746;47.180;9.776;2023-04-29T13:28:03;29.00;97.20
19224;DHT22;9746;47.180;9.776;2023-04-29T13:30:32;28.60;97.10
19224;DHT22;9746;47.180;9.776;2023-04-29T13:33:00;28.10;97.80
19224;DHT22;9746;47.180;9.776;2023-04-29T13:35:27;27.50;98.30
19224;DHT22;9746;47.180;9.776;2023-04-29T13:37:55;27.40;99.00
19224;DHT22;9746;47.180;9.776;2023-04-29T13:40:22;27.10;98.80
19224;DHT22;9746;47.180;9.776;2023-04-29T13:42:51;26.90;99.90
19224;DHT22;9746;47.180;9.776;2023-04-29T13:45:18;27.00;99.80
19224;DHT22;9746;47.180;9.776;2023-04-29T13:47:46;26.40;99.60
19224;DHT22;9746;47.180;9.776;2023-04-29T13:50:14;26.40;99.90
19224;DHT22;9746;47.180;9.776;2023-04-29T13:52:42;27.30;99.90
19224;DHT22;9746;47.180;9.776;2023-04-29T13:55:09;28.10;99.90
19224;DHT22;9746;47.180;9.776;2023-04-29T13:57:37;29.40;98.70
19224;DHT22;9746;47.180;9.776;2023-04-29T14:00:13;30.20;97.30
19224;DHT22;9746;47.180;9.776;2023-04-29T14:02:41;30.40;95.90
19224;DHT22;9746;47.180;9.776;2023-04-29T14:05:08;30.20;95.20
19224;DHT22;9746;47.180;9.776;2023-04-29T14:07:36;30.00;96.30
19224;DHT22;9746;47.180;9.776;2023-04-29T14:10:04;30.80;95.20
19224;DHT22;9746;47.180;9.776;2023-04-29T14:12:32;31.40;95.20
19224;DHT22;9746;47.180;9.776;2023-04-29T14:15:01;32.10;93.00
19224;DHT22;9746;47.180;9.776;2023-04-29T14:17:31;31.70;92.60
19224;DHT22;9746;47.180;9.776;2023-04-29T14:20:00;31.70;93.20
19224;DHT22;9746;47.180;9.776;2023-04-29T14:22:29;32.40;93.00
19224;DHT22;9746;47.180;9.776;2023-04-29T14:24:56;33.00;92.20
19224;DHT22;9746;47.180;9.776;2023-04-29T14:27:23;33.20;91.10
19224;DHT22;9746;47.180;9.776;2023-04-29T14:29:51;32.50;90.10
19224;DHT22;9746;47.180;9.776;2023-04-29T14:32:18;32.20;90.70
19224;DHT22;9746;47.180;9.776;2023-04-29T14:34:48;32.80;91.20
19224;DHT22;9746;47.180;9.776;2023-04-29T14:37:16;33.80;90.20
19224;DHT22;9746;47.180;9.776;2023-04-29T14:39:44;33.90;89.10
19224;DHT22;9746;47.180;9.776;2023-04-29T14:42:11;33.30;89.50
19224;DHT22;9746;47.180;9.776;2023-04-29T14:44:39;32.50;89.60
19224;DHT22;9746;47.180;9.776;2023-04-29T14:47:07;31.70;90.40
19224;DHT22;9746;47.180;9.776;2023-04-29T14:49:35;31.90;90.00
19224;DHT22;9746;47.180;9.776;2023-04-29T14:52:04;32.20;90.10
19224;DHT22;9746;47.180;9.776;2023-04-29T14:54:31;32.30;90.70
19224;DHT22;9746;47.180;9.776;2023-04-29T14:56:59;32.50;90.10
19224;DHT22;9746;47.180;9.776;2023-04-29T14:59:32;31.40;90.10
19224;DHT22;9746;47.180;9.776;2023-04-29T15:01:59;30.60;92.30
19224;DHT22;9746;47.180;9.776;2023-04-29T15:04:27;29.90;91.50
19224;DHT22;9746;47.180;9.776;2023-04-29T15:06:55;29.00;93.10
19224;DHT22;9746;47.180;9.776;2023-04-29T15:09:25;28.40;93.10
19224;DHT22;9746;47.180;9.776;2023-04-29T15:11:53;27.40;93.80
19224;DHT22;9746;47.180;9.776;2023-04-29T15:14:21;26.80;94.40
19224;DHT22;9746;47.180;9.776;2023-04-29T15:16:49;26.20;95.10
19224;DHT22;9746;47.180;9.776;2023-04-29T15:19:17;26.00;96.10
19224;DHT22;9746;47.180;9.776;2023-04-29T15:21:45;25.40;96.30
19224;DHT22;9746;47.180;9.776;2023-04-29T15:24:28;24.90;97.50
19224;DHT22;9746;47.180;9.776;2023-04-29T15:26:55;24.30;99.00
19224;DHT22;9746;47.180;9.776;2023-04-29T15:29:28;23.50;99.90
19224;DHT22;9746;47.180;9.776;2023-04-29T15:31:57;22.40;99.80
19224;DHT22;9746;47.180;9.776;2023-04-29T15:34:37;21.10;99.90
19224;DHT22;9746;47.180;9.776;2023-04-29T15:37:04;19.90;99.90
19224;DHT22;9746;47.180;9.776;2023-04-29T15:39:36;18.50;99.90
19224;DHT22;9746;47.180;9.776;2023-04-29T15:42:03;17.50;99.90
19224;DHT22;9746;47.180;9.776;2023-04-29T15:44:31;16.80;99.90
19224;DHT22;9746;47.180;9.776;2023-04-29T15:46:59;16.60;99.90
19224;DHT22;9746;47.180;9.776;2023-04-29T15:49:26;16.90;99.90
19224;DHT22;9746;47.180;9.776;2023-04-29T15:51:54;17.20;99.90
19224;DHT22;9746;47.180;9.776;2023-04-29T15:54:28;17.70;99.90
19224;DHT22;9746;47.180;9.776;2023-04-29T15:56:57;18.40;99.90
19224;DHT22;9746;47.180;9.776;2023-04-29T15:59:26;19.10;99.90
19224;DHT22;9746;47.180;9.776;2023-04-29T16:01:53;19.50;99.90
19224;DHT22;9746;47.180;9.776;2023-04-29T16:04:20;19.60;99.90
19224;DHT22;9746;47.180;9.776;2023-04-29T16:06:48;20.00;99.90
19224;DHT22;9746;47.180;9.776;2023-04-29T16:09:18;20.50;99.90
19224;DHT22;9746;47.180;9.776;2023-04-29T16:11:46;21.00;99.90
19224;DHT22;9746;47.180;9.776;2023-04-29T16:14:15;21.20;99.90
19224;DHT22;9746;47.180;9.776;2023-04-29T16:16:43;21.40;99.90
19224;DHT22;9746;47.180;9.776;2023-04-29T16:19:15;20.80;99.90
19224;DHT22;9746;47.180;9.776;2023-04-29T16:21:43;20.50;99.90
19224;DHT22;9746;47.180;9.776;2023-04-29T16:24:10;20.50;99.90
19224;DHT22;9746;47.180;9.776;2023-04-29T16:26:38;20.60;99.90
19224;DHT22;9746;47.180;9.776;2023-04-29T16:29:06;20.70;99.90
19224;DHT22;9746;47.180;9.776;2023-04-29T16:31:36;20.90;99.90
19224;DHT22;9746;47.180;9.776;2023-04-29T16:34:03;21.00;99.90
19224;DHT22;9746;47.180;9.776;2023-04-29T16:36:31;21.00;99.90
19224;DHT22;9746;47.180;9.776;2023-04-29T16:38:58;21.10;99.90
19224;DHT22;9746;47.180;9.776;2023-04-29T16:41:33;21.10;99.90
19224;DHT22;9746;47.180;9.776;2023-04-29T16:44:00;21.00;99.90
19224;DHT22;9746;47.180;9.776;2023-04-29T16:46:45;20.90;99.90
19224;DHT22;9746;47.180;9.776;2023-04-29T16:49:14;20.80;99.90
19224;DHT22;9746;47.180;9.776;2023-04-29T16:51:43;20.70;99.90
19224;DHT22;9746;47.180;9.776;2023-04-29T16:54:11;20.50;99.90
19224;DHT22;9746;47.180;9.776;2023-04-29T16:56:40;20.40;99.90
19224;DHT22;9746;47.180;9.776;2023-04-29T16:59:10;20.20;99.90
19224;DHT22;9746;47.180;9.776;2023-04-29T17:01:39;20.00;99.90
19224;DHT22;9746;47.180;9.776;2023-04-29T17:04:10;19.80;99.90
19224;DHT22;9746;47.180;9.776;2023-04-29T17:06:38;19.60;99.90
19224;DHT22;9746;47.180;9.776;2023-04-29T17:09:07;19.40;99.90
19224;DHT22;9746;47.180;9.776;2023-04-29T17:11:35;19.20;99.90
19224;DHT22;9746;47.180;9.776;2023-04-29T17:14:02;19.00;99.90
19224;DHT22;9746;47.180;9.776;2023-04-29T17:16:31;18.90;99.90
19224;DHT22;9746;47.180;9.776;2023-04-29T17:18:58;18.60;99.90
19224;DHT22;9746;47.180;9.776;2023-04-29T17:21:28;17.90;99.90
19224;DHT22;9746;47.180;9.776;2023-04-29T17:23:57;17.20;99.90
19224;DHT22;9746;47.180;9.776;2023-04-29T17:26:25;17.10;99.90
19224;DHT22;9746;47.180;9.776;2023-04-29T17:28:52;16.90;99.90
19224;DHT22;9746;47.180;9.776;2023-04-29T17:31:27;16.90;99.90
19224;DHT22;9746;47.180;9.776;2023-04-29T17:34:09;16.90;99.90
19224;DHT22;9746;47.180;9.776;2023-04-29T17:36:45;16.90;99.90
19224;DHT22;9746;47.180;9.776;2023-04-29T17:39:13;17.00;99.90
19224;DHT22;9746;47.180;9.776;2023-04-29T17:41:42;17.00;99.90
19224;DHT22;9746;47.180;9.776;2023-04-29T17:44:10;17.00;99.90
19224;DHT22;9746;47.180;9.776;2023-04-29T17:46:37;17.00;99.90
19224;DHT22;9746;47.180;9.776;2023-04-29T17:49:07;16.90;99.90
19224;DHT22;9746;47.180;9.776;2023-04-29T17:51:42;16.80;99.90
19224;DHT22;9746;47.180;9.776;2023-04-29T17:54:11;16.80;99.90
19224;DHT22;9746;47.180;9.776;2023-04-29T17:56:42;16.80;99.90
19224;DHT22;9746;47.180;9.776;2023-04-29T17:59:10;16.70;99.90
19224;DHT22;9746;47.180;9.776;2023-04-29T18:01:39;16.70;99.90
19224;DHT22;9746;47.180;9.776;2023-04-29T18:04:06;16.60;99.90
19224;DHT22;9746;47.180;9.776;2023-04-29T18:06:33;16.50;99.90
19224;DHT22;9746;47.180;9.776;2023-04-29T18:09:01;16.40;99.90
19224;DHT22;9746;47.180;9.776;2023-04-29T18:11:33;16.30;99.90
19224;DHT22;9746;47.180;9.776;2023-04-29T18:14:02;16.30;99.90
19224;DHT22;9746;47.180;9.776;2023-04-29T18:16:37;16.20;99.90
19224;DHT22;9746;47.180;9.776;2023-04-29T18:19:04;16.10;99.90
19224;DHT22;9746;47.180;9.776;2023-04-29T18:21:34;16.00;99.90
19224;DHT22;9746;47.180;9.776;2023-04-29T18:24:01;15.90;99.90
19224;DHT22;9746;47.180;9.776;2023-04-29T18:26:35;15.60;99.90
19224;DHT22;9746;47.180;9.776;2023-04-29T18:29:02;15.40;99.90
19224;DHT22;9746;47.180;9.776;2023-04-29T18:31:32;15.30;99.90
19224;DHT22;9746;47.180;9.776;2023-04-29T18:34:00;15.10;99.90
19224;DHT22;9746;47.180;9.776;2023-04-29T18:36:27;15.00;99.90
19224;DHT22;9746;47.180;9.776;2023-04-29T18:38:55;14.90;99.90
19224;DHT22;9746;47.180;9.776;2023-04-29T18:41:35;14.90;99.90
19224;DHT22;9746;47.180;9.776;2023-04-29T18:44:05;14.90;99.90
19224;DHT22;9746;47.180;9.776;2023-04-29T18:46:37;14.70;99.90
19224;DHT22;9746;47.180;9.776;2023-04-29T18:49:05;14.70;99.90
19224;DHT22;9746;47.180;9.776;2023-04-29T18:51:35;14.70;99.90
19224;DHT22;9746;47.180;9.776;2023-04-29T18:54:03;14.70;99.90
19224;DHT22;9746;47.180;9.776;2023-04-29T18:56:32;14.70;99.90
19224;DHT22;9746;47.180;9.776;2023-04-29T18:59:14;14.60;99.90
19224;DHT22;9746;47.180;9.776;2023-04-29T19:01:46;14.50;99.90
19224;DHT22;9746;47.180;9.776;2023-04-29T19:04:14;14.50;99.90
19224;DHT22;9746;47.180;9.776;2023-04-29T19:06:44;14.50;99.90
19224;DHT22;9746;47.180;9.776;2023-04-29T19:09:11;14.60;99.90
19224;DHT22;9746;47.180;9.776;2023-04-29T19:11:39;14.60;99.90
19224;DHT22;9746;47.180;9.776;2023-04-29T19:14:07;14.60;99.90
19224;DHT22;9746;47.180;9.776;2023-04-29T19:16:37;14.60;99.90
19224;DHT22;9746;47.180;9.776;2023-04-29T19:19:06;14.50;99.90
19224;DHT22;9746;47.180;9.776;2023-04-29T19:21:33;14.50;99.90
19224;DHT22;9746;47.180;9.776;2023-04-29T19:24:02;14.30;99.90
19224;DHT22;9746;47.180;9.776;2023-04-29T19:26:29;14.40;99.90
19224;DHT22;9746;47.180;9.776;2023-04-29T19:28:56;14.40;99.90
19224;DHT22;9746;47.180;9.776;2023-04-29T19:31:24;14.40;99.90
19224;DHT22;9746;47.180;9.776;2023-04-29T19:33:53;14.50;99.90
19224;DHT22;9746;47.180;9.776;2023-04-29T19:36:21;14.50;99.90
19224;DHT22;9746;47.180;9.776;2023-04-29T19:38:48;14.60;99.90
19224;DHT22;9746;47.180;9.776;2023-04-29T19:41:18;14.60;99.90
